sensor_id;sensor_type;location;lat;lon;timestamp;temperature;humidity
20957;DHT22;10637;47.970;7.830;2024-01-15T00:00:10;-0.70;99.90
20957;DHT22;10637;47.970;7.830;2024-01-15T00:05:12;-0.80;99.90
20957;DHT22;10637;47.970;7.830;2024-01-15T00:10:14;-1.00;99.90
20957;DHT22;10637;47.970;7.830;2024-01-15T00:15:15;-1.00;99.90
20957;DHT22;10637;47.970;7.830;2024-01-15T00:20:17;-1.00;99.90
20957;DHT22;10637;47.970;7.830;2024-01-15T00:25:19;-1.00;99.90
20957;DHT22;10637;47.970;7.830;2024-01-15T00:30:20;-0.90;99.90
20957;DHT22;10637;47.970;7.830;2024-01-15T00:35:22;-0.90;99.90
20957;DHT22;10637;47.970;7.830;2024-01-15T00:40:24;-0.80;99.90
20957;DHT22;10637;47.970;7.830;2024-01-15T00:45:27;-0.80;99.90
20957;DHT22;10637;47.970;7.830;2024-01-15T00:50:29;-0.70;99.90
20957;DHT22;10637;47.970;7.830;2024-01-15T00:55:31;-0.40;99.90
20957;DHT22;10637;47.970;7.830;2024-01-15T01:00:33;-0.20;99.90
20957;DHT22;10637;47.970;7.830;2024-01-15T01:05:35;-0.10;99.90
20957;DHT22;10637;47.970;7.830;2024-01-15T01:10:37;-0.30;99.90
20957;DHT22;10637;47.970;7.830;2024-01-15T01:15:39;-0.40;99.90
20957;DHT22;10637;47.970;7.830;2024-01-15T01:20:40;-0.30;99.90
20957;DHT22;10637;47.970;7.830;2024-01-15T01:25:42;-0.20;99.90
20957;DHT22;10637;47.970;7.830;2024-01-15T01:30:44;-0.30;99.90
20957;DHT22;10637;47.970;7.830;2024-01-15T01:35:46;-0.10;99.90
20957;DHT22;10637;47.970;7.830;2024-01-15T01:40:48;-0.20;99.90
20957;DHT22;10637;47.970;7.830;2024-01-15T01:45:50;-0.30;99.90
20957;DHT22;10637;47.970;7.830;2024-01-15T01:50:59;-0.40;99.90
20957;DHT22;10637;47.970;7.830;2024-01-15T01:56:01;-0.40;99.90
20957;DHT22;10637;47.970;7.830;2024-01-15T02:01:04;-0.50;99.90
20957;DHT22;10637;47.970;7.830;2024-01-15T02:06:07;-0.20;99.90
20957;DHT22;10637;47.970;7.830;2024-01-15T02:11:09;-0.10;99.90
20957;DHT22;10637;47.970;7.830;2024-01-15T02:16:11;0.10;99.90
20957;DHT22;10637;47.970;7.830;2024-01-15T02:21:13;0.30;99.90
20957;DHT22;10637;47.970;7.830;2024-01-15T02:26:15;0.50;99.90
20957;DHT22;10637;47.970;7.830;2024-01-15T02:31:17;0.50;99.90
20957;DHT22;10637;47.970;7.830;2024-01-15T02:36:19;0.40;99.90
20957;DHT22;10637;47.970;7.830;2024-01-15T02:41:21;0.60;99.90
20957;DHT22;10637;47.970;7.830;2024-01-15T02:46:22;0.70;99.90
20957;DHT22;10637;47.970;7.830;2024-01-15T02:51:24;0.80;99.90
20957;DHT22;10637;47.970;7.830;2024-01-15T02:56:26;0.90;99.90
20957;DHT22;10637;47.970;7.830;2024-01-15T03:01:28;1.00;99.90
20957;DHT22;10637;47.970;7.830;2024-01-15T03:06:30;0.90;99.90
20957;DHT22;10637;47.970;7.830;2024-01-15T03:11:38;1.00;99.90
20957;DHT22;10637;47.970;7.830;2024-01-15T03:16:40;1.10;99.90
20957;DHT22;10637;47.970;7.830;2024-01-15T03:21:43;1.10;99.90
20957;DHT22;10637;47.970;7.830;2024-01-15T03:26:45;1.10;99.90
20957;DHT22;10637;47.970;7.830;2024-01-15T03:31:47;1.30;99.90
20957;DHT22;10637;47.970;7.830;2024-01-15T03:36:49;1.20;99.90
20957;DHT22;10637;47.970;7.830;2024-01-15T03:41:50;1.30;99.90
20957;DHT22;10637;47.970;7.830;2024-01-15T03:46:52;1.30;99.90
20957;DHT22;10637;47.970;7.830;2024-01-15T03:51:54;1.20;99.90
20957;DHT22;10637;47.970;7.830;2024-01-15T03:56:56;1.30;99.90
20957;DHT22;10637;47.970;7.830;2024-01-15T04:01:57;1.30;99.90
20957;DHT22;10637;47.970;7.830;2024-01-15T04:06:59;1.20;99.90
20957;DHT22;10637;47.970;7.830;2024-01-15T04:12:01;1.30;99.90
20957;DHT22;10637;47.970;7.830;2024-01-15T04:17:03;1.20;99.90
20957;DHT22;10637;47.970;7.830;2024-01-15T04:22:05;1.20;99.90
20957;DHT22;10637;47.970;7.830;2024-01-15T04:27:07;1.20;99.90
20957;DHT22;10637;47.970;7.830;2024-01-15T04:32:09;1.20;99.90
20957;DHT22;10637;47.970;7.830;2024-01-15T04:37:11;1.30;99.90
20957;DHT22;10637;47.970;7.830;2024-01-15T04:42:14;1.30;99.90
20957;DHT22;10637;47.970;7.830;2024-01-15T04:47:16;1.20;99.90
20957;DHT22;10637;47.970;7.830;2024-01-15T04:52:18;1.30;99.90
20957;DHT22;10637;47.970;7.830;2024-01-15T04:57:20;1.40;99.90
20957;DHT22;10637;47.970;7.830;2024-01-15T05:02:22;1.50;99.90
20957;DHT22;10637;47.970;7.830;2024-01-15T05:07:23;1.40;99.90
20957;DHT22;10637;47.970;7.830;2024-01-15T05:12:25;1.30;99.90
20957;DHT22;10637;47.970;7.830;2024-01-15T05:17:27;1.30;99.90
20957;DHT22;10637;47.970;7.830;2024-01-15T05:22:29;1.20;99.90
20957;DHT22;10637;47.970;7.830;2024-01-15T05:27:30;1.20;99.90
20957;DHT22;10637;47.970;7.830;2024-01-15T05:32:32;1.10;99.90
20957;DHT22;10637;47.970;7.830;2024-01-15T05:37:34;0.80;99.90
20957;DHT22;10637;47.970;7.830;2024-01-15T05:42:36;0.70;99.90
20957;DHT22;10637;47.970;7.830;2024-01-15T05:47:37;0.50;99.90
20957;DHT22;10637;47.970;7.830;2024-01-15T05:52:39;0.50;99.90
20957;DHT22;10637;47.970;7.830;2024-01-15T05:57:41;0.50;99.90
20957;DHT22;10637;47.970;7.830;2024-01-15T06:02:43;0.40;99.90
20957;DHT22;10637;47.970;7.830;2024-01-15T06:07:45;0.40;99.90
20957;DHT22;10637;47.970;7.830;2024-01-15T06:12:46;0.50;99.90
20957;DHT22;10637;47.970;7.830;2024-01-15T06:17:48;0.40;99.90
20957;DHT22;10637;47.970;7.830;2024-01-15T06:22:50;0.50;99.90
20957;DHT22;10637;47.970;7.830;2024-01-15T06:27:52;0.60;99.90
20957;DHT22;10637;47.970;7.830;2024-01-15T06:32:54;0.60;99.90
20957;DHT22;10637;47.970;7.830;2024-01-15T06:37:56;0.70;99.90
20957;DHT22;10637;47.970;7.830;2024-01-15T06:42:57;0.80;99.90
20957;DHT22;10637;47.970;7.830;2024-01-15T06:47:59;0.70;99.90
20957;DHT22;10637;47.970;7.830;2024-01-15T06:53:01;0.70;99.90
20957;DHT22;10637;47.970;7.830;2024-01-15T06:58:03;0.60;99.90
20957;DHT22;10637;47.970;7.830;2024-01-15T07:03:05;0.60;99.90
20957;DHT22;10637;47.970;7.830;2024-01-15T07:08:07;0.50;99.90
20957;DHT22;10637;47.970;7.830;2024-01-15T07:13:09;0.50;99.90
20957;DHT22;10637;47.970;7.830;2024-01-15T07:18:10;0.40;99.90
20957;DHT22;10637;47.970;7.830;2024-01-15T07:23:12;0.40;99.90
20957;DHT22;10637;47.970;7.830;2024-01-15T07:28:14;0.50;99.90
20957;DHT22;10637;47.970;7.830;2024-01-15T07:33:16;0.50;99.90
20957;DHT22;10637;47.970;7.830;2024-01-15T07:38:18;0.70;99.90
20957;DHT22;10637;47.970;7.830;2024-01-15T07:43:19;0.80;99.90
20957;DHT22;10637;47.970;7.830;2024-01-15T07:48:21;0.90;99.90
20957;DHT22;10637;47.970;7.830;2024-01-15T07:53:23;1.10;99.90
20957;DHT22;10637;47.970;7.830;2024-01-15T07:58:25;1.20;99.90
20957;DHT22;10637;47.970;7.830;2024-01-15T08:03:27;1.40;99.90
20957;DHT22;10637;47.970;7.830;2024-01-15T08:08:29;1.60;99.90
20957;DHT22;10637;47.970;7.830;2024-01-15T08:13:31;1.60;99.90
20957;DHT22;10637;47.970;7.830;2024-01-15T08:18:33;1.70;99.90
20957;DHT22;10637;47.970;7.830;2024-01-15T08:23:35;1.90;99.90
20957;DHT22;10637;47.970;7.830;2024-01-15T08:28:37;1.90;99.90
20957;DHT22;10637;47.970;7.830;2024-01-15T08:33:40;2.00;99.90
20957;DHT22;10637;47.970;7.830;2024-01-15T08:38:42;2.00;99.90
20957;DHT22;10637;47.970;7.830;2024-01-15T08:43:44;2.00;99.90
20957;DHT22;10637;47.970;7.830;2024-01-15T08:48:46;2.00;99.90
20957;DHT22;10637;47.970;7.830;2024-01-15T08:53:47;2.00;99.90
20957;DHT22;10637;47.970;7.830;2024-01-15T08:58:49;2.00;99.90
20957;DHT22;10637;47.970;7.830;2024-01-15T09:03:51;2.10;99.90
20957;DHT22;10637;47.970;7.830;2024-01-15T09:08:53;2.00;99.90
20957;DHT22;10637;47.970;7.830;2024-01-15T09:13:55;2.00;99.90
20957;DHT22;10637;47.970;7.830;2024-01-15T09:18:57;2.00;99.90
20957;DHT22;10637;47.970;7.830;2024-01-15T09:23:59;2.10;99.90
20957;DHT22;10637;47.970;7.830;2024-01-15T09:29:01;2.10;99.90
20957;DHT22;10637;47.970;7.830;2024-01-15T09:34:02;2.10;99.90
20957;DHT22;10637;47.970;7.830;2024-01-15T09:39:04;2.40;99.90
20957;DHT22;10637;47.970;7.830;2024-01-15T09:44:10;2.70;99.90
20957;DHT22;10637;47.970;7.830;2024-01-15T09:49:13;2.80;99.90
20957;DHT22;10637;47.970;7.830;2024-01-15T09:54:16;3.10;99.90
20957;DHT22;10637;47.970;7.830;2024-01-15T09:59:19;3.10;99.90
20957;DHT22;10637;47.970;7.830;2024-01-15T10:04:21;3.00;99.90
20957;DHT22;10637;47.970;7.830;2024-01-15T10:09:25;3.10;99.90
20957;DHT22;10637;47.970;7.830;2024-01-15T10:14:27;3.10;99.90
20957;DHT22;10637;47.970;7.830;2024-01-15T10:19:31;2.90;99.90
20957;DHT22;10637;47.970;7.830;2024-01-15T10:24:32;2.90;99.90
20957;DHT22;10637;47.970;7.830;2024-01-15T10:29:36;2.90;99.90
20957;DHT22;10637;47.970;7.830;2024-01-15T10:34:39;3.00;99.90
20957;DHT22;10637;47.970;7.830;2024-01-15T10:39:51;2.90;99.90
20957;DHT22;10637;47.970;7.830;2024-01-15T10:44:53;2.90;99.90
20957;DHT22;10637;47.970;7.830;2024-01-15T10:49:55;2.80;99.90
20957;DHT22;10637;47.970;7.830;2024-01-15T10:54:57;2.70;99.90
20957;DHT22;10637;47.970;7.830;2024-01-15T10:59:59;2.60;99.90
20957;DHT22;10637;47.970;7.830;2024-01-15T11:05:01;2.60;99.90
20957;DHT22;10637;47.970;7.830;2024-01-15T11:10:04;2.70;99.90
20957;DHT22;10637;47.970;7.830;2024-01-15T11:15:06;2.60;99.90
20957;DHT22;10637;47.970;7.830;2024-01-15T11:20:11;2.50;99.90
20957;DHT22;10637;47.970;7.830;2024-01-15T11:25:13;2.50;99.90
20957;DHT22;10637;47.970;7.830;2024-01-15T11:30:16;2.50;99.90
20957;DHT22;10637;47.970;7.830;2024-01-15T11:35:18;2.50;99.90
20957;DHT22;10637;47.970;7.830;2024-01-15T11:45:35;2.50;99.90
20957;DHT22;10637;47.970;7.830;2024-01-15T11:50:47;2.60;99.90
20957;DHT22;10637;47.970;7.830;2024-01-15T11:55:51;2.60;99.90
20957;DHT22;10637;47.970;7.830;2024-01-15T12:00:54;2.70;99.90
20957;DHT22;10637;47.970;7.830;2024-01-15T12:05:56;2.60;99.90
20957;DHT22;10637;47.970;7.830;2024-01-15T12:11:00;2.60;99.90
20957;DHT22;10637;47.970;7.830;2024-01-15T12:16:02;2.60;99.90
20957;DHT22;10637;47.970;7.830;2024-01-15T12:21:05;2.60;99.90
20957;DHT22;10637;47.970;7.830;2024-01-15T12:26:07;2.70;99.90
20957;DHT22;10637;47.970;7.830;2024-01-15T12:31:10;2.70;99.90
20957;DHT22;10637;47.970;7.830;2024-01-15T12:36:13;2.90;99.90
20957;DHT22;10637;47.970;7.830;2024-01-15T12:41:15;3.10;99.90
20957;DHT22;10637;47.970;7.830;2024-01-15T12:46:17;3.00;99.90
20957;DHT22;10637;47.970;7.830;2024-01-15T12:51:18;2.90;99.90
20957;DHT22;10637;47.970;7.830;2024-01-15T12:56:20;2.90;99.90
20957;DHT22;10637;47.970;7.830;2024-01-15T13:01:22;2.90;99.90
20957;DHT22;10637;47.970;7.830;2024-01-15T13:06:24;2.90;99.90
20957;DHT22;10637;47.970;7.830;2024-01-15T13:11:26;2.90;99.90
20957;DHT22;10637;47.970;7.830;2024-01-15T13:16:28;2.90;99.90
20957;DHT22;10637;47.970;7.830;2024-01-15T13:21:30;2.80;99.90
20957;DHT22;10637;47.970;7.830;2024-01-15T13:26:33;2.80;99.90
20957;DHT22;10637;47.970;7.830;2024-01-15T13:31:35;2.70;99.90
20957;DHT22;10637;47.970;7.830;2024-01-15T13:36:37;2.60;99.90
20957;DHT22;10637;47.970;7.830;2024-01-15T13:41:40;2.60;99.90
20957;DHT22;10637;47.970;7.830;2024-01-15T13:46:42;2.50;99.90
20957;DHT22;10637;47.970;7.830;2024-01-15T13:51:43;2.40;99.90
20957;DHT22;10637;47.970;7.830;2024-01-15T13:56:45;2.40;99.90
20957;DHT22;10637;47.970;7.830;2024-01-15T14:01:48;2.40;99.90
20957;DHT22;10637;47.970;7.830;2024-01-15T14:06:50;2.30;99.90
20957;DHT22;10637;47.970;7.830;2024-01-15T14:11:52;2.30;99.90
20957;DHT22;10637;47.970;7.830;2024-01-15T14:16:53;2.30;99.90
20957;DHT22;10637;47.970;7.830;2024-01-15T14:21:55;2.20;99.90
20957;DHT22;10637;47.970;7.830;2024-01-15T14:26:57;2.30;99.90
20957;DHT22;10637;47.970;7.830;2024-01-15T14:32:00;2.20;99.90
20957;DHT22;10637;47.970;7.830;2024-01-15T14:37:03;2.10;99.90
20957;DHT22;10637;47.970;7.830;2024-01-15T14:42:05;2.20;99.90
20957;DHT22;10637;47.970;7.830;2024-01-15T14:47:07;2.10;99.90
20957;DHT22;10637;47.970;7.830;2024-01-15T14:52:09;2.20;99.90
20957;DHT22;10637;47.970;7.830;2024-01-15T14:57:11;2.20;99.90
20957;DHT22;10637;47.970;7.830;2024-01-15T15:02:13;2.20;99.90
20957;DHT22;10637;47.970;7.830;2024-01-15T15:07:15;2.20;99.90
20957;DHT22;10637;47.970;7.830;2024-01-15T15:12:17;2.10;99.90
20957;DHT22;10637;47.970;7.830;2024-01-15T15:17:19;2.20;99.90
20957;DHT22;10637;47.970;7.830;2024-01-15T15:22:21;2.20;99.90
20957;DHT22;10637;47.970;7.830;2024-01-15T15:27:22;2.20;99.90
20957;DHT22;10637;47.970;7.830;2024-01-15T15:32:24;2.20;99.90
20957;DHT22;10637;47.970;7.830;2024-01-15T15:37:26;2.20;99.90
20957;DHT22;10637;47.970;7.830;2024-01-15T15:42:28;2.10;99.90
20957;DHT22;10637;47.970;7.830;2024-01-15T15:47:29;2.10;99.90
20957;DHT22;10637;47.970;7.830;2024-01-15T15:52:32;2.00;99.90
20957;DHT22;10637;47.970;7.830;2024-01-15T15:57:34;2.00;99.90
20957;DHT22;10637;47.970;7.830;2024-01-15T16:02:35;2.00;99.90
20957;DHT22;10637;47.970;7.830;2024-01-15T16:07:37;2.00;99.90
20957;DHT22;10637;47.970;7.830;2024-01-15T16:12:39;1.90;99.90
20957;DHT22;10637;47.970;7.830;2024-01-15T16:17:41;1.90;99.90
20957;DHT22;10637;47.970;7.830;2024-01-15T16:23:03;1.90;99.90
20957;DHT22;10637;47.970;7.830;2024-01-15T16:28:25;1.90;99.90
20957;DHT22;10637;47.970;7.830;2024-01-15T16:33:27;1.80;99.90
20957;DHT22;10637;47.970;7.830;2024-01-15T16:38:29;1.80;99.90
20957;DHT22;10637;47.970;7.830;2024-01-15T16:43:31;1.80;99.90
20957;DHT22;10637;47.970;7.830;2024-01-15T16:48:33;1.70;99.90
20957;DHT22;10637;47.970;7.830;2024-01-15T16:53:35;1.70;99.90
20957;DHT22;10637;47.970;7.830;2024-01-15T16:58:37;1.70;99.90
20957;DHT22;10637;47.970;7.830;2024-01-15T17:03:39;1.70;99.90
20957;DHT22;10637;47.970;7.830;2024-01-15T17:08:41;1.60;99.90
20957;DHT22;10637;47.970;7.830;2024-01-15T17:13:43;1.60;99.90
20957;DHT22;10637;47.970;7.830;2024-01-15T17:18:45;1.50;99.90
20957;DHT22;10637;47.970;7.830;2024-01-15T17:23:47;1.60;99.90
20957;DHT22;10637;47.970;7.830;2024-01-15T17:28:49;1.60;99.90
20957;DHT22;10637;47.970;7.830;2024-01-15T17:33:50;1.60;99.90
20957;DHT22;10637;47.970;7.830;2024-01-15T17:38:52;1.60;99.90
20957;DHT22;10637;47.970;7.830;2024-01-15T17:43:54;1.80;99.90
20957;DHT22;10637;47.970;7.830;2024-01-15T17:48:56;1.90;99.90
20957;DHT22;10637;47.970;7.830;2024-01-15T17:54:04;1.80;99.90
20957;DHT22;10637;47.970;7.830;2024-01-15T17:59:10;1.90;99.90
20957;DHT22;10637;47.970;7.830;2024-01-15T18:04:13;1.80;99.90
20957;DHT22;10637;47.970;7.830;2024-01-15T18:09:16;1.70;99.90
20957;DHT22;10637;47.970;7.830;2024-01-15T18:14:21;1.80;99.90
20957;DHT22;10637;47.970;7.830;2024-01-15T18:19:22;1.90;99.90
20957;DHT22;10637;47.970;7.830;2024-01-15T18:24:24;1.90;99.90
20957;DHT22;10637;47.970;7.830;2024-01-15T18:29:26;1.90;99.90
20957;DHT22;10637;47.970;7.830;2024-01-15T18:34:28;1.90;99.90
20957;DHT22;10637;47.970;7.830;2024-01-15T18:39:30;1.90;99.90
20957;DHT22;10637;47.970;7.830;2024-01-15T18:44:31;1.90;99.90
20957;DHT22;10637;47.970;7.830;2024-01-15T18:49:33;1.80;99.90
20957;DHT22;10637;47.970;7.830;2024-01-15T18:54:35;1.70;99.90
20957;DHT22;10637;47.970;7.830;2024-01-15T18:59:37;1.70;99.90
20957;DHT22;10637;47.970;7.830;2024-01-15T19:04:41;1.60;99.90
20957;DHT22;10637;47.970;7.830;2024-01-15T19:09:43;1.50;99.90
20957;DHT22;10637;47.970;7.830;2024-01-15T19:14:45;1.40;99.90
20957;DHT22;10637;47.970;7.830;2024-01-15T19:19:46;1.40;99.90
20957;DHT22;10637;47.970;7.830;2024-01-15T19:24:52;1.30;99.90
20957;DHT22;10637;47.970;7.830;2024-01-15T19:29:54;1.20;99.90
20957;DHT22;10637;47.970;7.830;2024-01-15T19:34:56;1.40;99.90
20957;DHT22;10637;47.970;7.830;2024-01-15T19:39:58;1.40;99.90
20957;DHT22;10637;47.970;7.830;2024-01-15T19:44:59;1.10;99.90
20957;DHT22;10637;47.970;7.830;2024-01-15T19:50:01;1.10;99.90
20957;DHT22;10637;47.970;7.830;2024-01-15T19:55:03;1.10;99.90
20957;DHT22;10637;47.970;7.830;2024-01-15T20:00:06;1.10;99.90
20957;DHT22;10637;47.970;7.830;2024-01-15T20:05:09;1.00;99.90
20957;DHT22;10637;47.970;7.830;2024-01-15T20:10:15;1.20;99.90
20957;DHT22;10637;47.970;7.830;2024-01-15T20:15:17;1.00;99.90
20957;DHT22;10637;47.970;7.830;2024-01-15T20:20:20;0.60;99.90
20957;DHT22;10637;47.970;7.830;2024-01-15T20:25:22;0.40;99.90
20957;DHT22;10637;47.970;7.830;2024-01-15T20:30:23;0.30;99.90
20957;DHT22;10637;47.970;7.830;2024-01-15T20:35:25;0.10;99.90
20957;DHT22;10637;47.970;7.830;2024-01-15T20:40:27;-0.10;99.90
20957;DHT22;10637;47.970;7.830;2024-01-15T20:45:29;-0.40;99.90
20957;DHT22;10637;47.970;7.830;2024-01-15T20:50:34;-0.60;99.90
20957;DHT22;10637;47.970;7.830;2024-01-15T20:55:35;-0.40;99.90
20957;DHT22;10637;47.970;7.830;2024-01-15T21:00:37;-0.20;99.90
20957;DHT22;10637;47.970;7.830;2024-01-15T21:05:41;-0.40;99.90
20957;DHT22;10637;47.970;7.830;2024-01-15T21:10:43;-0.30;99.90
20957;DHT22;10637;47.970;7.830;2024-01-15T21:15:45;-0.60;99.90
20957;DHT22;10637;47.970;7.830;2024-01-15T21:20:48;-0.50;99.90
20957;DHT22;10637;47.970;7.830;2024-01-15T21:25:50;-0.60;99.90
20957;DHT22;10637;47.970;7.830;2024-01-15T21:30:52;-0.80;99.90
20957;DHT22;10637;47.970;7.830;2024-01-15T21:35:54;-1.00;99.90
20957;DHT22;10637;47.970;7.830;2024-01-15T21:40:56;-1.10;99.90
20957;DHT22;10637;47.970;7.830;2024-01-15T21:45:57;-1.20;99.90
20957;DHT22;10637;47.970;7.830;2024-01-15T21:50:59;-1.30;99.90
20957;DHT22;10637;47.970;7.830;2024-01-15T21:56:01;-1.20;99.90
20957;DHT22;10637;47.970;7.830;2024-01-15T22:01:03;-1.10;99.90
20957;DHT22;10637;47.970;7.830;2024-01-15T22:06:05;-0.90;99.90
20957;DHT22;10637;47.970;7.830;2024-01-15T22:11:07;-0.90;99.90
20957;DHT22;10637;47.970;7.830;2024-01-15T22:16:09;-0.90;99.90
20957;DHT22;10637;47.970;7.830;2024-01-15T22:21:11;-1.30;99.90
20957;DHT22;10637;47.970;7.830;2024-01-15T22:26:13;-1.20;99.90
20957;DHT22;10637;47.970;7.830;2024-01-15T22:31:15;-1.00;99.90
20957;DHT22;10637;47.970;7.830;2024-01-15T22:36:17;-1.20;99.90
20957;DHT22;10637;47.970;7.830;2024-01-15T22:41:18;-1.10;99.90
20957;DHT22;10637;47.970;7.830;2024-01-15T22:46:20;-1.00;99.90
20957;DHT22;10637;47.970;7.830;2024-01-15T22:51:22;-1.10;99.90
20957;DHT22;10637;47.970;7.830;2024-01-15T22:56:24;-1.20;99.90
20957;DHT22;10637;47.970;7.830;2024-01-15T23:01:26;-1.20;99.90
20957;DHT22;10637;47.970;7.830;2024-01-15T23:06:27;-1.20;99.90
20957;DHT22;10637;47.970;7.830;2024-01-15T23:11:29;-1.20;99.90
20957;DHT22;10637;47.970;7.830;2024-01-15T23:16:31;-1.30;99.90
20957;DHT22;10637;47.970;7.830;2024-01-15T23:21:33;-1.10;99.90
20957;DHT22;10637;47.970;7.830;2024-01-15T23:26:35;-1.00;99.90
20957;DHT22;10637;47.970;7.830;2024-01-15T23:31:40;-1.10;99.90
20957;DHT22;10637;47.970;7.830;2024-01-15T23:36:42;-1.70;99.90
20957;DHT22;10637;47.970;7.830;2024-01-15T23:41:44;-1.90;99.90
20957;DHT22;10637;47.970;7.830;2024-01-15T23:46:47;-2.10;99.90
20957;DHT22;10637;47.970;7.830;2024-01-15T23:52:07;-2.20;99.90
20957;DHT22;10637;47.970;7.830;2024-01-15T23:57:09;-2.10;99.90
